^^
Meteo Knjazevac Station Historical Data
Daily Summary for May 25, 2022 Units:  Both    English   Metric
Daily Weekly Monthly Yearly Custom
  High: Low: Average:
Temperature: 70.5 °F /  21.4 °C 34.3 °F /  1.3 °C 51.7 °F /  10.9 °C
Dew Point: 51.3 °F /  10.7 °C 34.1 °F /  1.2 °C 42.9 °F /  6.1 °C
Humidity: 99% 44% 77%
Wind Speed: 14.3mph /  23km/h - 5.6mph /  9km/h
Wind Gust: 18mph /  29km/h - -
Wind- - WSW
Pressure: 30.19 in /  1022.2 hPa 30.10 in /  1019.2 hPa -
Precipitation: 0.00 in /  0 mm    
Historical Graphs
 
 
Tabular Data for May 25, 2022
Time Temperature Dew Point Pressure Wind Wind Speed Wind Gust Humidity Rainfall Rate (Hourly) solar Conditions
00:04 39.8 °F /  4.3 °C 39.6 °F /  4.2 °C 30.18in /  1021.9hPa WNW 0.8mph /  1.3km/h 2mph /  3.2km/h 99% 0.00in /  0mm 0 W/m2
00:09 39.6 °F /  4.2 °C 39.4 °F /  4.1 °C 30.18in /  1021.9hPa WNW 2.2mph /  3.5km/h 2mph /  3.2km/h 99% 0.00in /  0mm 0 W/m2
00:14 39.3 °F /  4.1 °C 39 °F /  3.9 °C 30.18in /  1021.9hPa West 3mph /  4.8km/h 3mph /  4.8km/h 99% 0.00in /  0mm 0 W/m2
00:19 39.1 °F /  3.9 °C 38.8 °F /  3.8 °C 30.18in /  1021.9hPa West 3.7mph /  6km/h 5mph /  8km/h 99% 0.00in /  0mm 0 W/m2
00:24 39 °F /  3.9 °C 38.8 °F /  3.8 °C 30.18in /  1021.9hPa West 4.1mph /  6.6km/h 5mph /  8km/h 99% 0.00in /  0mm 0 W/m2
00:29 39 °F /  3.9 °C 38.8 °F /  3.8 °C 30.18in /  1021.9hPa West 4.1mph /  6.6km/h 5mph /  8km/h 99% 0.00in /  0mm 0 W/m2
00:34 38.8 °F /  3.8 °C 38.6 °F /  3.7 °C 30.18in /  1021.9hPa West 2.7mph /  4.3km/h 5mph /  8km/h 99% 0.00in /  0mm 0 W/m2
00:39 38.8 °F /  3.8 °C 38.5 °F /  3.6 °C 30.18in /  1021.9hPa West 2.3mph /  3.7km/h 3mph /  4.8km/h 99% 0.00in /  0mm 0 W/m2
00:44 38.7 °F /  3.7 °C 38.4 °F /  3.6 °C 30.18in /  1021.9hPa WNW 2.3mph /  3.7km/h 2mph /  3.2km/h 99% 0.00in /  0mm 0 W/m2
00:49 38.5 °F /  3.6 °C 38.2 °F /  3.4 °C 30.18in /  1021.9hPa WNW 2.4mph /  3.9km/h 3mph /  4.8km/h 99% 0.00in /  0mm 0 W/m2
00:54 38.4 °F /  3.6 °C 38.1 °F /  3.4 °C 30.18in /  1021.9hPa WNW 3.4mph /  5.5km/h 3mph /  4.8km/h 99% 0.00in /  0mm 0 W/m2
00:59 38.3 °F /  3.5 °C 38 °F /  3.3 °C 30.18in /  1021.9hPa West 3.3mph /  5.3km/h 3mph /  4.8km/h 99% 0.00in /  0mm 0 W/m2
01:04 38.1 °F /  3.4 °C 37.9 °F /  3.3 °C 30.18in /  1021.9hPa West 3.3mph /  5.3km/h 4mph /  6.4km/h 99% 0.00in /  0mm 0 W/m2
01:09 38.1 °F /  3.4 °C 37.9 °F /  3.3 °C 30.18in /  1021.9hPa West 3.4mph /  5.5km/h 4mph /  6.4km/h 99% 0.00in /  0mm 0 W/m2
01:14 37.9 °F /  3.3 °C 37.7 °F /  3.2 °C 30.18in /  1021.9hPa West 2.4mph /  3.9km/h 3mph /  4.8km/h 99% 0.00in /  0mm 0 W/m2
01:19 37.9 °F /  3.3 °C 37.7 °F /  3.2 °C 30.18in /  1021.9hPa West 2.7mph /  4.3km/h 3mph /  4.8km/h 99% 0.00in /  0mm 0 W/m2
01:24 37.9 °F /  3.3 °C 37.7 °F /  3.2 °C 30.18in /  1021.9hPa WNW 3mph /  4.8km/h 3.4mph /  5.5km/h 99% 0.00in /  0mm 0 W/m2
01:29 37.9 °F /  3.3 °C 37.7 °F /  3.2 °C 30.18in /  1021.9hPa WNW 3mph /  4.8km/h 4mph /  6.4km/h 99% 0.00in /  0mm 0 W/m2
01:34 37.9 °F /  3.3 °C 37.6 °F /  3.1 °C 30.18in /  1021.9hPa WNW 3.2mph /  5.1km/h 4mph /  6.4km/h 99% 0.00in /  0mm 0 W/m2
01:39 37.8 °F /  3.2 °C 37.5 °F /  3.1 °C 30.18in /  1021.9hPa West 2.5mph /  4km/h 4mph /  6.4km/h 99% 0.00in /  0mm 0 W/m2
01:44 37.8 °F /  3.2 °C 37.5 °F /  3.1 °C 30.18in /  1021.9hPa West 3.3mph /  5.3km/h 3.1mph /  5km/h 99% 0.00in /  0mm 0 W/m2
01:49 37.7 °F /  3.2 °C 37.4 °F /  3 °C 30.18in /  1021.9hPa WNW 2.7mph /  4.3km/h 4mph /  6.4km/h 99% 0.00in /  0mm 0 W/m2
01:54 37.7 °F /  3.2 °C 37.4 °F /  3 °C 30.18in /  1021.9hPa WNW 3.2mph /  5.1km/h 3mph /  4.8km/h 99% 0.00in /  0mm 0 W/m2
01:59 37.6 °F /  3.1 °C 37.3 °F /  2.9 °C 30.18in /  1021.9hPa West 2.8mph /  4.5km/h 4mph /  6.4km/h 99% 0.00in /  0mm 0 W/m2
02:04 37.6 °F /  3.1 °C 37.3 °F /  2.9 °C 30.18in /  1021.9hPa WNW 1.9mph /  3.1km/h 4mph /  6.4km/h 99% 0.00in /  0mm 0 W/m2
02:09 37.5 °F /  3.1 °C 37.2 °F /  2.9 °C 30.17in /  1021.6hPa WNW 3.1mph /  5km/h 3mph /  4.8km/h 99% 0.00in /  0mm 0 W/m2
02:14 37.4 °F /  3 °C 37.1 °F /  2.8 °C 30.17in /  1021.6hPa West 3.2mph /  5.1km/h 3mph /  4.8km/h 99% 0.00in /  0mm 0 W/m2
02:19 37.2 °F /  2.9 °C 37 °F /  2.8 °C 30.17in /  1021.6hPa WNW 3.3mph /  5.3km/h 4mph /  6.4km/h 99% 0.00in /  0mm 0 W/m2
02:24 37.2 °F /  2.9 °C 37 °F /  2.8 °C 30.17in /  1021.6hPa West 2.9mph /  4.7km/h 4mph /  6.4km/h 99% 0.00in /  0mm 0 W/m2
02:29 37 °F /  2.8 °C 36.8 °F /  2.7 °C 30.17in /  1021.6hPa WNW 3.4mph /  5.5km/h 3mph /  4.8km/h 99% 0.00in /  0mm 0 W/m2
02:34 37 °F /  2.8 °C 36.8 °F /  2.7 °C 30.17in /  1021.6hPa WNW 3.5mph /  5.6km/h 3.1mph /  5km/h 99% 0.00in /  0mm 0 W/m2
02:39 36.9 °F /  2.7 °C 36.6 °F /  2.6 °C 30.17in /  1021.6hPa WNW 3.4mph /  5.5km/h 4mph /  6.4km/h 99% 0.00in /  0mm 0 W/m2
02:44 36.9 °F /  2.7 °C 36.6 °F /  2.6 °C 30.17in /  1021.6hPa WNW 3.2mph /  5.1km/h 4mph /  6.4km/h 99% 0.00in /  0mm 0 W/m2
02:49 36.9 °F /  2.7 °C 36.6 °F /  2.6 °C 30.17in /  1021.6hPa WNW 2.6mph /  4.2km/h 4mph /  6.4km/h 99% 0.00in /  0mm 0 W/m2
02:54 36.9 °F /  2.7 °C 36.6 °F /  2.6 °C 30.17in /  1021.6hPa WNW 3.4mph /  5.5km/h 3mph /  4.8km/h 99% 0.00in /  0mm 0 W/m2
02:59 36.7 °F /  2.6 °C 36.4 °F /  2.4 °C 30.17in /  1021.6hPa West 3.2mph /  5.1km/h 4mph /  6.4km/h 99% 0.00in /  0mm 0 W/m2
03:04 36.6 °F /  2.6 °C 36.3 °F /  2.4 °C 30.17in /  1021.6hPa West 2.6mph /  4.2km/h 4mph /  6.4km/h 99% 0.00in /  0mm 0 W/m2
03:09 36.4 °F /  2.4 °C 36.1 °F /  2.3 °C 30.17in /  1021.6hPa West 3.4mph /  5.5km/h 3.4mph /  5.5km/h 99% 0.00in /  0mm 0 W/m2
03:14 36.3 °F /  2.4 °C 36.1 °F /  2.3 °C 30.17in /  1021.6hPa West 4.2mph /  6.8km/h 5mph /  8km/h 99% 0.00in /  0mm 0 W/m2
03:19 36.3 °F /  2.4 °C 36.1 °F /  2.3 °C 30.17in /  1021.6hPa West 3.5mph /  5.6km/h 5mph /  8km/h 99% 0.00in /  0mm 0 W/m2
03:24 36.2 °F /  2.3 °C 36 °F /  2.2 °C 30.16in /  1021.2hPa West 3.4mph /  5.5km/h 3.1mph /  5km/h 99% 0.00in /  0mm 0 W/m2
03:29 36.3 °F /  2.4 °C 36.1 °F /  2.3 °C 30.16in /  1021.2hPa WNW 3.7mph /  6km/h 4mph /  6.4km/h 99% 0.00in /  0mm 0 W/m2
03:34 36.3 °F /  2.4 °C 36.1 °F /  2.3 °C 30.16in /  1021.2hPa WNW 2.6mph /  4.2km/h 4mph /  6.4km/h 99% 0.00in /  0mm 0 W/m2
03:39 36.3 °F /  2.4 °C 36.1 °F /  2.3 °C 30.17in /  1021.6hPa WNW 3.3mph /  5.3km/h 4mph /  6.4km/h 99% 0.00in /  0mm 0 W/m2
03:44 36.3 °F /  2.4 °C 36.1 °F /  2.3 °C 30.17in /  1021.6hPa West 3.4mph /  5.5km/h 4mph /  6.4km/h 99% 0.00in /  0mm 0 W/m2
03:49 36.1 °F /  2.3 °C 35.9 °F /  2.2 °C 30.17in /  1021.6hPa West 3.2mph /  5.1km/h 4mph /  6.4km/h 99% 0.00in /  0mm 0 W/m2
03:54 36 °F /  2.2 °C 35.7 °F /  2.1 °C 30.17in /  1021.6hPa West 3.3mph /  5.3km/h 4mph /  6.4km/h 99% 0.00in /  0mm 0 W/m2
03:59 35.9 °F /  2.2 °C 35.6 °F /  2 °C 30.17in /  1021.6hPa West 3mph /  4.8km/h 4mph /  6.4km/h 99% 0.00in /  0mm 0 W/m2
04:04 35.7 °F /  2.1 °C 35.4 °F /  1.9 °C 30.17in /  1021.6hPa West 2.3mph /  3.7km/h 3mph /  4.8km/h 99% 0.00in /  0mm 0 W/m2
04:09 35.6 °F /  2 °C 35.3 °F /  1.8 °C 30.17in /  1021.6hPa West 3.7mph /  6km/h 3.6mph /  5.8km/h 99% 0.00in /  0mm 0 W/m2
04:14 35.5 °F /  1.9 °C 35.3 °F /  1.8 °C 30.17in /  1021.6hPa West 3.9mph /  6.3km/h 3.6mph /  5.8km/h 99% 0.00in /  0mm 0 W/m2
04:19 35.4 °F /  1.9 °C 35.2 °F /  1.8 °C 30.17in /  1021.6hPa West 4mph /  6.4km/h 5mph /  8km/h 99% 0.00in /  0mm 0 W/m2
04:24 35.6 °F /  2 °C 35.3 °F /  1.8 °C 30.17in /  1021.6hPa WNW 3.4mph /  5.5km/h 5mph /  8km/h 99% 0.00in /  0mm 0 W/m2
04:29 35.6 °F /  2 °C 35.3 °F /  1.8 °C 30.17in /  1021.6hPa WNW 3.2mph /  5.1km/h 4mph /  6.4km/h 99% 0.00in /  0mm 0 W/m2
04:34 35.6 °F /  2 °C 35.3 °F /  1.8 °C 30.17in /  1021.6hPa WNW 3.4mph /  5.5km/h 4mph /  6.4km/h 99% 0.00in /  0mm 0 W/m2
04:39 35.5 °F /  1.9 °C 35.3 °F /  1.8 °C 30.17in /  1021.6hPa WNW 4mph /  6.4km/h 5mph /  8km/h 99% 0.00in /  0mm 0 W/m2
04:44 35.6 °F /  2 °C 35.3 °F /  1.8 °C 30.17in /  1021.6hPa WNW 3.2mph /  5.1km/h 5mph /  8km/h 99% 0.00in /  0mm 0 W/m2
04:49 35.6 °F /  2 °C 35.3 °F /  1.8 °C 30.17in /  1021.6hPa West 3.3mph /  5.3km/h 3mph /  4.8km/h 99% 0.00in /  0mm 0 W/m2
04:54 35.4 °F /  1.9 °C 35.2 °F /  1.8 °C 30.17in /  1021.6hPa West 3.2mph /  5.1km/h 3.1mph /  5km/h 99% 0.00in /  0mm 0 W/m2
04:59 35.3 °F /  1.8 °C 35.1 °F /  1.7 °C 30.17in /  1021.6hPa WNW 3.2mph /  5.1km/h 4mph /  6.4km/h 99% 0.00in /  0mm 0 W/m2
05:04 35.2 °F /  1.8 °C 35 °F /  1.7 °C 30.17in /  1021.6hPa WNW 3mph /  4.8km/h 4mph /  6.4km/h 99% 0.00in /  0mm 0 W/m2
05:09 35.2 °F /  1.8 °C 34.9 °F /  1.6 °C 30.17in /  1021.6hPa WNW 2.5mph /  4km/h 3mph /  4.8km/h 99% 0.00in /  0mm 0 W/m2
05:14 35.1 °F /  1.7 °C 34.8 °F /  1.6 °C 30.17in /  1021.6hPa WNW 3mph /  4.8km/h 3mph /  4.8km/h 99% 0.00in /  0mm 0 W/m2
05:19 34.9 °F /  1.6 °C 34.6 °F /  1.4 °C 30.17in /  1021.6hPa WNW 2.3mph /  3.7km/h 3mph /  4.8km/h 99% 0.00in /  0mm 0 W/m2
05:24 34.7 °F /  1.5 °C 34.4 °F /  1.3 °C 30.17in /  1021.6hPa WNW 2.8mph /  4.5km/h 2.7mph /  4.3km/h 99% 0.00in /  0mm 0 W/m2
05:29 34.7 °F /  1.5 °C 34.4 °F /  1.3 °C 30.17in /  1021.6hPa NW 3.6mph /  5.8km/h 3.1mph /  5km/h 99% 0.00in /  0mm 0 W/m2
05:34 34.8 °F /  1.6 °C 34.5 °F /  1.4 °C 30.17in /  1021.6hPa NW 2.6mph /  4.2km/h 5mph /  8km/h 99% 0.00in /  0mm 0 W/m2
05:39 34.9 °F /  1.6 °C 34.6 °F /  1.4 °C 30.17in /  1021.6hPa NW 2.9mph /  4.7km/h 3mph /  4.8km/h 99% 0.00in /  0mm 0 W/m2
05:44 34.9 °F /  1.6 °C 34.6 °F /  1.4 °C 30.17in /  1021.6hPa NW 2.7mph /  4.3km/h 3mph /  4.8km/h 99% 0.00in /  0mm 0 W/m2
05:49 34.9 °F /  1.6 °C 34.6 °F /  1.4 °C 30.17in /  1021.6hPa WNW 2.9mph /  4.7km/h 3mph /  4.8km/h 99% 0.00in /  0mm 0 W/m2
05:54 34.9 °F /  1.6 °C 34.6 °F /  1.4 °C 30.17in /  1021.6hPa WNW 2.8mph /  4.5km/h 4mph /  6.4km/h 99% 0.00in /  0mm 0 W/m2
05:59 34.9 °F /  1.6 °C 34.6 °F /  1.4 °C 30.18in /  1021.9hPa WNW 2.8mph /  4.5km/h 3mph /  4.8km/h 99% 0.00in /  0mm 0 W/m2
06:04 34.9 °F /  1.6 °C 34.6 °F /  1.4 °C 30.18in /  1021.9hPa NW 3.8mph /  6.1km/h 5mph /  8km/h 99% 0.00in /  0mm 0 W/m2
06:09 34.9 °F /  1.6 °C 34.6 °F /  1.4 °C 30.17in /  1021.6hPa NW 3.5mph /  5.6km/h 5mph /  8km/h 99% 0.00in /  0mm 0 W/m2
06:14 34.9 °F /  1.6 °C 34.6 °F /  1.4 °C 30.18in /  1021.9hPa WNW 3.8mph /  6.1km/h 5mph /  8km/h 99% 0.00in /  0mm 2 W/m2
06:19 34.9 °F /  1.6 °C 34.6 °F /  1.4 °C 30.18in /  1021.9hPa WNW 3.4mph /  5.5km/h 5mph /  8km/h 99% 0.00in /  0mm 4 W/m2
06:24 34.9 °F /  1.6 °C 34.6 °F /  1.4 °C 30.18in /  1021.9hPa West 3.4mph /  5.5km/h 4mph /  6.4km/h 99% 0.00in /  0mm 6 W/m2
06:29 34.7 °F /  1.5 °C 34.4 °F /  1.3 °C 30.18in /  1021.9hPa West 3.7mph /  6km/h 4mph /  6.4km/h 99% 0.00in /  0mm 10 W/m2
06:34 34.5 °F /  1.4 °C 34.3 °F /  1.3 °C 30.18in /  1021.9hPa WNW 3.8mph /  6.1km/h 5mph /  8km/h 99% 0.00in /  0mm 13 W/m2
06:39 34.5 °F /  1.4 °C 34.3 °F /  1.3 °C 30.18in /  1021.9hPa NW 2.7mph /  4.3km/h 4mph /  6.4km/h 99% 0.00in /  0mm 18 W/m2
06:44 34.4 °F /  1.3 °C 34.2 °F /  1.2 °C 30.18in /  1021.9hPa NW 2.7mph /  4.3km/h 4mph /  6.4km/h 99% 0.00in /  0mm 22 W/m2
06:49 34.3 °F /  1.3 °C 34.1 °F /  1.2 °C 30.18in /  1021.9hPa WNW 2.8mph /  4.5km/h 4mph /  6.4km/h 99% 0.00in /  0mm 26 W/m2
06:54 34.3 °F /  1.3 °C 34.1 °F /  1.2 °C 30.18in /  1021.9hPa WNW 2.9mph /  4.7km/h 3mph /  4.8km/h 99% 0.00in /  0mm 30 W/m2
06:59 34.4 °F /  1.3 °C 34.2 °F /  1.2 °C 30.18in /  1021.9hPa West 3.4mph /  5.5km/h 4mph /  6.4km/h 99% 0.00in /  0mm 34 W/m2
07:04 34.5 °F /  1.4 °C 34.3 °F /  1.3 °C 30.18in /  1021.9hPa West 3.3mph /  5.3km/h 3.6mph /  5.8km/h 99% 0.00in /  0mm 37 W/m2
07:09 34.5 °F /  1.4 °C 34.3 °F /  1.3 °C 30.18in /  1021.9hPa West 4.5mph /  7.2km/h 5mph /  8km/h 99% 0.00in /  0mm 41 W/m2
07:14 34.7 °F /  1.5 °C 34.4 °F /  1.3 °C 30.18in /  1021.9hPa West 3.3mph /  5.3km/h 6mph /  9.7km/h 99% 0.00in /  0mm 85 W/m2
07:19 34.9 °F /  1.6 °C 34.6 °F /  1.4 °C 30.18in /  1021.9hPa WNW 3.6mph /  5.8km/h 4mph /  6.4km/h 99% 0.00in /  0mm 102 W/m2
07:24 35 °F /  1.7 °C 34.7 °F /  1.5 °C 30.18in /  1021.9hPa WNW 3.1mph /  5km/h 5mph /  8km/h 99% 0.00in /  0mm 116 W/m2
07:29 35.2 °F /  1.8 °C 34.9 °F /  1.6 °C 30.18in /  1021.9hPa WNW 4.1mph /  6.6km/h 3.8mph /  6.1km/h 99% 0.00in /  0mm 133 W/m2
07:34 35.4 °F /  1.9 °C 35.2 °F /  1.8 °C 30.18in /  1021.9hPa WNW 3.7mph /  6km/h 5mph /  8km/h 99% 0.00in /  0mm 148 W/m2
07:39 35.8 °F /  2.1 °C 35.5 °F /  1.9 °C 30.18in /  1021.9hPa WNW 3.2mph /  5.1km/h 5mph /  8km/h 99% 0.00in /  0mm 158 W/m2
07:44 36.1 °F /  2.3 °C 35.8 °F /  2.1 °C 30.18in /  1021.9hPa WNW 3mph /  4.8km/h 3mph /  4.8km/h 99% 0.00in /  0mm 177 W/m2
07:49 36.4 °F /  2.4 °C 36.1 °F /  2.3 °C 30.18in /  1021.9hPa WNW 2.5mph /  4km/h 3mph /  4.8km/h 99% 0.00in /  0mm 191 W/m2
07:54 36.7 °F /  2.6 °C 36.4 °F /  2.4 °C 30.18in /  1021.9hPa WNW 3mph /  4.8km/h 3mph /  4.8km/h 99% 0.00in /  0mm 205 W/m2
07:59 37.1 °F /  2.8 °C 36.9 °F /  2.7 °C 30.18in /  1021.9hPa West 3.3mph /  5.3km/h 3mph /  4.8km/h 99% 0.00in /  0mm 220 W/m2
08:04 37.6 °F /  3.1 °C 37.3 °F /  2.9 °C 30.18in /  1021.9hPa West 2.3mph /  3.7km/h 3mph /  4.8km/h 99% 0.00in /  0mm 231 W/m2
08:09 38 °F /  3.3 °C 37.7 °F /  3.2 °C 30.18in /  1021.9hPa WNW 2.6mph /  4.2km/h 2.2mph /  3.5km/h 99% 0.00in /  0mm 248 W/m2
08:14 38.6 °F /  3.7 °C 38.3 °F /  3.5 °C 30.18in /  1021.9hPa NW 2.8mph /  4.5km/h 3mph /  4.8km/h 99% 0.00in /  0mm 263 W/m2
08:19 39.3 °F /  4.1 °C 39 °F /  3.9 °C 30.18in /  1021.9hPa WNW 3.3mph /  5.3km/h 4mph /  6.4km/h 99% 0.00in /  0mm 280 W/m2
08:24 40.5 °F /  4.7 °C 40.2 °F /  4.6 °C 30.18in /  1021.9hPa WNW 2.7mph /  4.3km/h 5mph /  8km/h 99% 0.00in /  0mm 288 W/m2
08:29 42 °F /  5.6 °C 41.7 °F /  5.4 °C 30.18in /  1021.9hPa WNW 2.9mph /  4.7km/h 3.4mph /  5.5km/h 99% 0.00in /  0mm 310 W/m2
08:34 43.8 °F /  6.6 °C 43.5 °F /  6.4 °C 30.18in /  1021.9hPa WNW 1.8mph /  2.9km/h 1.3mph /  2.1km/h 99% 0.00in /  0mm 327 W/m2
08:39 45.4 °F /  7.4 °C 45.2 °F /  7.3 °C 30.18in /  1021.9hPa WNW 3.2mph /  5.1km/h 2.9mph /  4.7km/h 99% 0.00in /  0mm 341 W/m2
08:44 46.2 °F /  7.9 °C 46 °F /  7.8 °C 30.18in /  1021.9hPa WNW 2.7mph /  4.3km/h 4mph /  6.4km/h 99% 0.00in /  0mm 357 W/m2
08:49 47 °F /  8.3 °C 46.6 °F /  8.1 °C 30.18in /  1021.9hPa West 2.1mph /  3.4km/h 3mph /  4.8km/h 98.6% 0.00in /  0mm 369 W/m2
08:54 48.2 °F /  9 °C 47 °F /  8.3 °C 30.19in /  1022.2hPa WSW 1.6mph /  2.6km/h 3mph /  4.8km/h 95.8% 0.00in /  0mm 385 W/m2
08:59 49.4 °F /  9.7 °C 47.7 °F /  8.7 °C 30.19in /  1022.2hPa West 1.7mph /  2.7km/h 2mph /  3.2km/h 93.7% 0.00in /  0mm 398 W/m2
09:04 50.6 °F /  10.3 °C 47.8 °F /  8.8 °C 30.19in /  1022.2hPa NW 3.2mph /  5.1km/h 2.5mph /  4km/h 90.1% 0.00in /  0mm 414 W/m2
09:09 51.3 °F /  10.7 °C 48.6 °F /  9.2 °C 30.19in /  1022.2hPa ESE 3.6mph /  5.8km/h 4mph /  6.4km/h 90.2% 0.00in /  0mm 429 W/m2
09:14 52.3 °F /  11.3 °C 48.4 °F /  9.1 °C 30.19in /  1022.2hPa ESE 4.1mph /  6.6km/h 5mph /  8km/h 86.7% 0.00in /  0mm 446 W/m2
09:19 52.8 °F /  11.6 °C 48.4 °F /  9.1 °C 30.19in /  1022.2hPa ESE 4.4mph /  7.1km/h 5mph /  8km/h 84.8% 0.00in /  0mm 460 W/m2
09:24 53.8 °F /  12.1 °C 49 °F /  9.4 °C 30.19in /  1022.2hPa ESE 3.3mph /  5.3km/h 5mph /  8km/h 83.8% 0.00in /  0mm 473 W/m2
09:29 54.7 °F /  12.6 °C 48.7 °F /  9.3 °C 30.19in /  1022.2hPa SE 4.4mph /  7.1km/h 5mph /  8km/h 80.1% 0.00in /  0mm 483 W/m2
09:34 55 °F /  12.8 °C 48.5 °F /  9.2 °C 30.19in /  1022.2hPa SE 3.8mph /  6.1km/h 5mph /  8km/h 78.8% 0.00in /  0mm 499 W/m2
09:39 55.6 °F /  13.1 °C 49.1 °F /  9.5 °C 30.19in /  1022.2hPa SE 4.6mph /  7.4km/h 5mph /  8km/h 78.6% 0.00in /  0mm 510 W/m2
09:44 56.2 °F /  13.4 °C 49.1 °F /  9.5 °C 30.19in /  1022.2hPa SSE 4.7mph /  7.6km/h 6mph /  9.7km/h 77.1% 0.00in /  0mm 520 W/m2
09:49 57 °F /  13.9 °C 50 °F /  10 °C 30.18in /  1021.9hPa South 4.2mph /  6.8km/h 5mph /  8km/h 77.4% 0.00in /  0mm 532 W/m2
09:54 57.7 °F /  14.3 °C 50.2 °F /  10.1 °C 30.18in /  1021.9hPa SSW 3.8mph /  6.1km/h 5mph /  8km/h 76% 0.00in /  0mm 543 W/m2
09:59 58.2 °F /  14.6 °C 50 °F /  10 °C 30.18in /  1021.9hPa SSW 3.5mph /  5.6km/h 5mph /  8km/h 74.3% 0.00in /  0mm 553 W/m2
10:04 58 °F /  14.4 °C 49.5 °F /  9.7 °C 30.18in /  1021.9hPa SE 3.2mph /  5.1km/h 3mph /  4.8km/h 73.4% 0.00in /  0mm 567 W/m2
10:09 58.4 °F /  14.7 °C 50 °F /  10 °C 30.18in /  1021.9hPa SE 2mph /  3.2km/h 4mph /  6.4km/h 73.6% 0.00in /  0mm 575 W/m2
10:14 59.4 °F /  15.2 °C 51 °F /  10.6 °C 30.18in /  1021.9hPa SW 2.7mph /  4.3km/h 2mph /  3.2km/h 73.9% 0.00in /  0mm 575 W/m2
10:19 60.2 °F /  15.7 °C 51.3 °F /  10.7 °C 30.18in /  1021.9hPa WSW 3mph /  4.8km/h 3mph /  4.8km/h 72.6% 0.00in /  0mm 438 W/m2
10:24 60.5 °F /  15.8 °C 50.7 °F /  10.4 °C 30.18in /  1021.9hPa SW 5.3mph /  8.5km/h 6mph /  9.7km/h 70% 0.00in /  0mm 87 W/m2
10:29 60.5 °F /  15.8 °C 50.4 °F /  10.2 °C 30.17in /  1021.6hPa SSE 5.6mph /  9km/h 7mph /  11.3km/h 69.3% 0.00in /  0mm 87 W/m2
10:34 61.2 °F /  16.2 °C 50.8 °F /  10.4 °C 30.18in /  1021.9hPa South 7.7mph /  12.4km/h 8mph /  12.9km/h 68.6% 0.00in /  0mm 149 W/m2
10:38 61.8 °F /  16.6 °C 50.1 °F /  10.1 °C 30.17in /  1021.6hPa SSW 11.7mph /  18.8km/h 13mph /  20.9km/h 65.5% 0.00in /  0mm 539 W/m2
10:44 62.1 °F /  16.7 °C 49.6 °F /  9.8 °C 30.17in /  1021.6hPa SW 13.5mph /  21.7km/h 15mph /  24.1km/h 63.8% 0.00in /  0mm 639 W/m2
10:49 62.4 °F /  16.9 °C 49.7 °F /  9.8 °C 30.17in /  1021.6hPa SW 11mph /  17.7km/h 15mph /  24.1km/h 63% 0.00in /  0mm 655 W/m2
10:54 63.1 °F /  17.3 °C 50 °F /  10 °C 30.17in /  1021.6hPa SW 12.2mph /  19.6km/h 8mph /  12.9km/h 62.3% 0.00in /  0mm 664 W/m2
10:59 63.1 °F /  17.3 °C 49.6 °F /  9.8 °C 30.17in /  1021.6hPa SW 12.6mph /  20.3km/h 14mph /  22.5km/h 61.3% 0.00in /  0mm 673 W/m2
11:04 63.4 °F /  17.4 °C 49.5 °F /  9.7 °C 30.17in /  1021.6hPa SW 12.7mph /  20.4km/h 9.6mph /  15.4km/h 60.5% 0.00in /  0mm 678 W/m2
11:09 63.6 °F /  17.6 °C 49.6 °F /  9.8 °C 30.16in /  1021.2hPa SW 11.5mph /  18.5km/h 13mph /  20.9km/h 60.3% 0.00in /  0mm 687 W/m2
11:14 63.9 °F /  17.7 °C 49.6 °F /  9.8 °C 30.16in /  1021.2hPa SW 12.1mph /  19.5km/h 13mph /  20.9km/h 59.8% 0.00in /  0mm 692 W/m2
11:19 64.2 °F /  17.9 °C 49.7 °F /  9.8 °C 30.16in /  1021.2hPa SW 9.7mph /  15.6km/h 14mph /  22.5km/h 59.3% 0.00in /  0mm 697 W/m2
11:24 64.7 °F /  18.2 °C 50.1 °F /  10.1 °C 30.16in /  1021.2hPa SW 10.3mph /  16.6km/h 12mph /  19.3km/h 59.2% 0.00in /  0mm 704 W/m2
11:29 64.8 °F /  18.2 °C 49.9 °F /  9.9 °C 30.16in /  1021.2hPa SW 12.4mph /  20km/h 8.7mph /  14km/h 58.5% 0.00in /  0mm 709 W/m2
11:34 65.3 °F /  18.5 °C 50 °F /  10 °C 30.16in /  1021.2hPa WSW 11mph /  17.7km/h 14mph /  22.5km/h 57.8% 0.00in /  0mm 715 W/m2
11:39 65.5 °F /  18.6 °C 50.1 °F /  10.1 °C 30.16in /  1021.2hPa WSW 11.6mph /  18.7km/h 8.7mph /  14km/h 57.7% 0.00in /  0mm 720 W/m2
11:44 65.7 °F /  18.7 °C 50.4 °F /  10.2 °C 30.16in /  1021.2hPa WSW 9.4mph /  15.1km/h 12mph /  19.3km/h 57.8% 0.00in /  0mm 714 W/m2
11:49 66.1 °F /  18.9 °C 50.8 °F /  10.4 °C 30.16in /  1021.2hPa SW 9.4mph /  15.1km/h 6.9mph /  11.1km/h 57.7% 0.00in /  0mm 731 W/m2
11:53 66.5 °F /  19.2 °C 50.2 °F /  10.1 °C 30.16in /  1021.2hPa SW 8.2mph /  13.2km/h 10mph /  16.1km/h 55.9% 0.00in /  0mm 732 W/m2
11:59 66.9 °F /  19.4 °C 50.1 °F /  10.1 °C 30.16in /  1021.2hPa SW 9.6mph /  15.4km/h 6.7mph /  10.8km/h 54.8% 0.00in /  0mm 737 W/m2
12:04 66.7 °F /  19.3 °C 49.2 °F /  9.6 °C 30.16in /  1021.2hPa SSW 10.9mph /  17.5km/h 12mph /  19.3km/h 53.4% 0.00in /  0mm 743 W/m2
12:09 66.8 °F /  19.3 °C 49.5 °F /  9.7 °C 30.16in /  1021.2hPa SW 10.4mph /  16.7km/h 12mph /  19.3km/h 53.7% 0.00in /  0mm 744 W/m2
12:14 67.1 °F /  19.5 °C 49.6 °F /  9.8 °C 30.16in /  1021.2hPa SW 11mph /  17.7km/h 12mph /  19.3km/h 53.5% 0.00in /  0mm 757 W/m2
12:19 67.3 °F /  19.6 °C 49.3 °F /  9.6 °C 30.16in /  1021.2hPa SW 10.8mph /  17.4km/h 13mph /  20.9km/h 52.6% 0.00in /  0mm 758 W/m2
12:24 67.5 °F /  19.7 °C 50 °F /  10 °C 30.15in /  1020.9hPa SW 7.8mph /  12.6km/h 4.9mph /  7.9km/h 53.5% 0.00in /  0mm 733 W/m2
12:29 67.7 °F /  19.8 °C 49.8 °F /  9.9 °C 30.15in /  1020.9hPa SW 5.8mph /  9.3km/h 5.6mph /  9km/h 52.6% 0.00in /  0mm 783 W/m2
12:34 68 °F /  20 °C 49.7 °F /  9.8 °C 30.15in /  1020.9hPa SW 9.7mph /  15.6km/h 7.6mph /  12.2km/h 52% 0.00in /  0mm 779 W/m2
12:38 68.1 °F /  20.1 °C 50.1 °F /  10.1 °C 30.15in /  1020.9hPa SW 8.9mph /  14.3km/h 11mph /  17.7km/h 52.5% 0.00in /  0mm 715 W/m2
12:44 68.1 °F /  20.1 °C 49.4 °F /  9.7 °C 30.14in /  1020.5hPa SW 9.7mph /  15.6km/h 14mph /  22.5km/h 51.1% 0.00in /  0mm 726 W/m2
12:49 68.1 °F /  20.1 °C 48.9 °F /  9.4 °C 30.14in /  1020.5hPa SSW 10.9mph /  17.5km/h 10.1mph /  16.3km/h 50.3% 0.00in /  0mm 721 W/m2
12:52 68 °F /  20 °C 48.6 °F /  9.2 °C 30.14in /  1020.5hPa SW 11.9mph /  19.2km/h 14mph /  22.5km/h 49.8% 0.00in /  0mm 735 W/m2
12:59 68 °F /  20 °C 48.8 °F /  9.3 °C 30.14in /  1020.5hPa SSW 10.5mph /  16.9km/h 12mph /  19.3km/h 50.2% 0.00in /  0mm 781 W/m2
13:04 68.4 °F /  20.2 °C 49 °F /  9.4 °C 30.14in /  1020.5hPa SSW 10.4mph /  16.7km/h 12mph /  19.3km/h 50% 0.00in /  0mm 797 W/m2
13:09 68.8 °F /  20.4 °C 49.6 °F /  9.8 °C 30.14in /  1020.5hPa SSW 8.4mph /  13.5km/h 13mph /  20.9km/h 50.4% 0.00in /  0mm 767 W/m2
13:14 69.1 °F /  20.6 °C 49.5 °F /  9.7 °C 30.14in /  1020.5hPa SW 10mph /  16.1km/h 9mph /  14.5km/h 49.6% 0.00in /  0mm 748 W/m2
13:19 69.2 °F /  20.7 °C 49.2 °F /  9.6 °C 30.14in /  1020.5hPa SW 8.2mph /  13.2km/h 10mph /  16.1km/h 49.2% 0.00in /  0mm 785 W/m2
13:24 69.4 °F /  20.8 °C 49.2 °F /  9.6 °C 30.14in /  1020.5hPa SW 7.9mph /  12.7km/h 11mph /  17.7km/h 48.6% 0.00in /  0mm 778 W/m2
13:29 69.3 °F /  20.7 °C 48.8 °F /  9.3 °C 30.14in /  1020.5hPa SW 10.4mph /  16.7km/h 9.4mph /  15.1km/h 48.1% 0.00in /  0mm 764 W/m2
13:34 69.5 °F /  20.8 °C 49 °F /  9.4 °C 30.14in /  1020.5hPa SW 10.2mph /  16.4km/h 13mph /  20.9km/h 48% 0.00in /  0mm 758 W/m2
13:39 69.7 °F /  20.9 °C 48.2 °F /  9 °C 30.14in /  1020.5hPa SW 10.3mph /  16.6km/h 12mph /  19.3km/h 46.3% 0.00in /  0mm 757 W/m2
13:44 69.6 °F /  20.9 °C 47.7 °F /  8.7 °C 30.14in /  1020.5hPa SW 12.1mph /  19.5km/h 14mph /  22.5km/h 45.7% 0.00in /  0mm 748 W/m2
13:49 69.7 °F /  20.9 °C 48 °F /  8.9 °C 30.13in /  1020.2hPa SW 14.3mph /  23km/h 14mph /  22.5km/h 45.9% 0.00in /  0mm 743 W/m2
13:54 69.6 °F /  20.9 °C 47.3 °F /  8.5 °C 30.13in /  1020.2hPa SW 10.7mph /  17.2km/h 18mph /  29km/h 45% 0.00in /  0mm 476 W/m2
13:59 69.1 °F /  20.6 °C 48 °F /  8.9 °C 30.13in /  1020.2hPa SW 7mph /  11.3km/h 13mph /  20.9km/h 47% 0.00in /  0mm 342 W/m2
14:04 68.8 °F /  20.4 °C 47.7 °F /  8.7 °C 30.13in /  1020.2hPa SW 11mph /  17.7km/h 9mph /  14.5km/h 47% 0.00in /  0mm 654 W/m2
14:09 68.8 °F /  20.4 °C 47 °F /  8.3 °C 30.13in /  1020.2hPa SW 10.9mph /  17.5km/h 14mph /  22.5km/h 45.7% 0.00in /  0mm 625 W/m2
14:14 69 °F /  20.6 °C 48.1 °F /  8.9 °C 30.13in /  1020.2hPa SW 6.6mph /  10.6km/h 11mph /  17.7km/h 47.2% 0.00in /  0mm 592 W/m2
14:19 69.4 °F /  20.8 °C 48.1 °F /  8.9 °C 30.13in /  1020.2hPa SW 11.8mph /  19km/h 9.6mph /  15.4km/h 46.7% 0.00in /  0mm 584 W/m2
14:24 69.3 °F /  20.7 °C 47 °F /  8.3 °C 30.13in /  1020.2hPa SW 9.8mph /  15.8km/h 14mph /  22.5km/h 45% 0.00in /  0mm 502 W/m2
14:29 69.3 °F /  20.7 °C 47.7 °F /  8.7 °C 30.12in /  1019.9hPa SW 9.7mph /  15.6km/h 12mph /  19.3km/h 46.1% 0.00in /  0mm 463 W/m2
14:34 69 °F /  20.6 °C 47 °F /  8.3 °C 30.12in /  1019.9hPa SW 9.9mph /  15.9km/h 12mph /  19.3km/h 45.4% 0.00in /  0mm 542 W/m2
14:39 69.2 °F /  20.7 °C 48.2 °F /  9 °C 30.12in /  1019.9hPa SW 6.4mph /  10.3km/h 11mph /  17.7km/h 47.2% 0.00in /  0mm 566 W/m2
14:44 69.5 °F /  20.8 °C 48.4 °F /  9.1 °C 30.12in /  1019.9hPa SW 7.9mph /  12.7km/h 7mph /  11.3km/h 47% 0.00in /  0mm 605 W/m2
14:49 69.7 °F /  20.9 °C 48.6 °F /  9.2 °C 30.12in /  1019.9hPa SSW 7.4mph /  11.9km/h 9mph /  14.5km/h 46.9% 0.00in /  0mm 589 W/m2
14:54 70.2 °F /  21.2 °C 49.1 °F /  9.5 °C 30.12in /  1019.9hPa SSW 9.5mph /  15.3km/h 10.7mph /  17.2km/h 47.3% 0.00in /  0mm 571 W/m2
14:59 70.3 °F /  21.3 °C 48.6 °F /  9.2 °C 30.12in /  1019.9hPa SSW 9.8mph /  15.8km/h 14mph /  22.5km/h 46% 0.00in /  0mm 574 W/m2
15:04 70.3 °F /  21.3 °C 47.8 °F /  8.8 °C 30.12in /  1019.9hPa SW 11mph /  17.7km/h 11mph /  17.7km/h 44.8% 0.00in /  0mm 550 W/m2
15:09 70.3 °F /  21.3 °C 47.4 °F /  8.6 °C 30.12in /  1019.9hPa SW 10.7mph /  17.2km/h 13mph /  20.9km/h 44% 0.00in /  0mm 498 W/m2
15:14 70.2 °F /  21.2 °C 47.7 °F /  8.7 °C 30.12in /  1019.9hPa SW 7.2mph /  11.6km/h 13mph /  20.9km/h 44.7% 0.00in /  0mm 439 W/m2
15:19 70.3 °F /  21.3 °C 48 °F /  8.9 °C 30.12in /  1019.9hPa SW 8.7mph /  14km/h 8mph /  12.9km/h 45.2% 0.00in /  0mm 445 W/m2
15:24 70.2 °F /  21.2 °C 48 °F /  8.9 °C 30.12in /  1019.9hPa SW 7.5mph /  12.1km/h 10mph /  16.1km/h 45.3% 0.00in /  0mm 366 W/m2
15:29 70.2 °F /  21.2 °C 48.5 °F /  9.2 °C 30.12in /  1019.9hPa SW 8.2mph /  13.2km/h 9mph /  14.5km/h 46.1% 0.00in /  0mm 362 W/m2
15:34 70 °F /  21.1 °C 48.2 °F /  9 °C 30.11in /  1019.5hPa SW 8.2mph /  13.2km/h 10mph /  16.1km/h 45.8% 0.00in /  0mm 413 W/m2
15:39 70.1 °F /  21.2 °C 48.2 °F /  9 °C 30.11in /  1019.5hPa SW 6.6mph /  10.6km/h 10mph /  16.1km/h 45.7% 0.00in /  0mm 423 W/m2
15:44 70.2 °F /  21.2 °C 48.4 °F /  9.1 °C 30.11in /  1019.5hPa SSW 7.6mph /  12.2km/h 8mph /  12.9km/h 46% 0.00in /  0mm 379 W/m2
15:49 70.2 °F /  21.2 °C 48.4 °F /  9.1 °C 30.10in /  1019.2hPa SSW 6.1mph /  9.8km/h 9mph /  14.5km/h 46% 0.00in /  0mm 412 W/m2
15:54 70.4 °F /  21.3 °C 49.4 °F /  9.7 °C 30.10in /  1019.2hPa SW 4.7mph /  7.6km/h 7mph /  11.3km/h 47.3% 0.00in /  0mm 392 W/m2
15:59 70.3 °F /  21.3 °C 48.2 °F /  9 °C 30.10in /  1019.2hPa SW 7.2mph /  11.6km/h 6mph /  9.7km/h 45.4% 0.00in /  0mm 399 W/m2
16:04 70.2 °F /  21.2 °C 48.2 °F /  9 °C 30.10in /  1019.2hPa SW 9.6mph /  15.4km/h 11mph /  17.7km/h 45.7% 0.00in /  0mm 396 W/m2
16:09 70.3 °F /  21.3 °C 49 °F /  9.4 °C 30.10in /  1019.2hPa SW 7.2mph /  11.6km/h 12mph /  19.3km/h 46.8% 0.00in /  0mm 384 W/m2
16:14 70.4 °F /  21.3 °C 48.9 °F /  9.4 °C 30.10in /  1019.2hPa SSW 6.9mph /  11.1km/h 8mph /  12.9km/h 46.6% 0.00in /  0mm 350 W/m2
16:19 70.5 °F /  21.4 °C 49.3 °F /  9.6 °C 30.10in /  1019.2hPa SSW 6.1mph /  9.8km/h 9mph /  14.5km/h 47% 0.00in /  0mm 334 W/m2
16:24 70.5 °F /  21.4 °C 49.5 °F /  9.7 °C 30.10in /  1019.2hPa SSW 7.6mph /  12.2km/h 7.8mph /  12.6km/h 47.2% 0.00in /  0mm 308 W/m2
16:29 70.5 °F /  21.4 °C 49.3 °F /  9.6 °C 30.10in /  1019.2hPa SW 8.1mph /  13km/h 12mph /  19.3km/h 47% 0.00in /  0mm 304 W/m2
16:34 70.4 °F /  21.3 °C 48.9 °F /  9.4 °C 30.10in /  1019.2hPa SW 8.4mph /  13.5km/h 9mph /  14.5km/h 46.5% 0.00in /  0mm 276 W/m2
16:39 70.2 °F /  21.2 °C 48.3 °F /  9.1 °C 30.10in /  1019.2hPa SW 8.8mph /  14.2km/h 9mph /  14.5km/h 45.8% 0.00in /  0mm 242 W/m2
16:44 69.8 °F /  21 °C 48.9 °F /  9.4 °C 30.10in /  1019.2hPa SW 10.4mph /  16.7km/h 9mph /  14.5km/h 47.4% 0.00in /  0mm 199 W/m2
16:49 69.4 °F /  20.8 °C 48.9 °F /  9.4 °C 30.10in /  1019.2hPa SW 8.9mph /  14.3km/h 12mph /  19.3km/h 48% 0.00in /  0mm 194 W/m2
16:54 69.3 °F /  20.7 °C 48.7 °F /  9.3 °C 30.10in /  1019.2hPa SW 7.9mph /  12.7km/h 10mph /  16.1km/h 48% 0.00in /  0mm 194 W/m2
16:59 69.1 °F /  20.6 °C 48.6 °F /  9.2 °C 30.10in /  1019.2hPa SW 8.4mph /  13.5km/h 8mph /  12.9km/h 48% 0.00in /  0mm 186 W/m2
17:04 69.1 °F /  20.6 °C 48.7 °F /  9.3 °C 30.10in /  1019.2hPa SW 7.6mph /  12.2km/h 10mph /  16.1km/h 48.2% 0.00in /  0mm 177 W/m2
17:09 69 °F /  20.6 °C 48.7 °F /  9.3 °C 30.10in /  1019.2hPa SW 9.9mph /  15.9km/h 9mph /  14.5km/h 48.5% 0.00in /  0mm 165 W/m2
17:14 68.7 °F /  20.4 °C 48.4 °F /  9.1 °C 30.10in /  1019.2hPa SW 7.5mph /  12.1km/h 11mph /  17.7km/h 48.3% 0.00in /  0mm 141 W/m2
17:19 68.6 °F /  20.3 °C 48.9 °F /  9.4 °C 30.10in /  1019.2hPa SW 5.6mph /  9km/h 8mph /  12.9km/h 49.4% 0.00in /  0mm 137 W/m2
17:24 68.5 °F /  20.3 °C 48.9 °F /  9.4 °C 30.10in /  1019.2hPa SW 5.3mph /  8.5km/h 6mph /  9.7km/h 49.6% 0.00in /  0mm 115 W/m2
17:29 68.3 °F /  20.2 °C 48.9 °F /  9.4 °C 30.10in /  1019.2hPa SW 7.9mph /  12.7km/h 6.9mph /  11.1km/h 50% 0.00in /  0mm 79 W/m2
17:34 68.1 °F /  20.1 °C 49 °F /  9.4 °C 30.10in /  1019.2hPa SW 5.4mph /  8.7km/h 9mph /  14.5km/h 50.5% 0.00in /  0mm 88 W/m2
17:39 67.8 °F /  19.9 °C 49.5 °F /  9.7 °C 30.10in /  1019.2hPa SW 3.2mph /  5.1km/h 6mph /  9.7km/h 52% 0.00in /  0mm 86 W/m2
17:44 67.6 °F /  19.8 °C 49.6 °F /  9.8 °C 30.10in /  1019.2hPa SW 4.3mph /  6.9km/h 4mph /  6.4km/h 52.4% 0.00in /  0mm 78 W/m2
17:49 67.4 °F /  19.7 °C 49.5 °F /  9.7 °C 30.10in /  1019.2hPa SW 4mph /  6.4km/h 5mph /  8km/h 52.7% 0.00in /  0mm 59 W/m2
17:54 67.1 °F /  19.5 °C 49.4 °F /  9.7 °C 30.10in /  1019.2hPa SW 3.9mph /  6.3km/h 5mph /  8km/h 53% 0.00in /  0mm 46 W/m2
17:59 66.7 °F /  19.3 °C 49.4 °F /  9.7 °C 30.10in /  1019.2hPa SW 3.9mph /  6.3km/h 5mph /  8km/h 53.6% 0.00in /  0mm 41 W/m2
18:04 66.5 °F /  19.2 °C 49.3 °F /  9.6 °C 30.10in /  1019.2hPa SW 3.5mph /  5.6km/h 5mph /  8km/h 54% 0.00in /  0mm 30 W/m2
Knjazevac, Serbia
Compliments of Weather Underground - 2 mb